createdAt,value
2023-04-16T00:01:20.252Z,3.50
2023-04-16T00:03:48.662Z,3.00
2023-04-16T00:06:16.858Z,2.97
2023-04-16T00:08:46.269Z,4.30
2023-04-16T00:11:14.316Z,3.85
2023-04-16T00:13:42.299Z,2.80
2023-04-16T00:16:10.710Z,3.35
2023-04-16T00:18:38.574Z,2.97
2023-04-16T00:21:06.809Z,2.90
2023-04-16T00:23:34.647Z,3.30
2023-04-16T00:26:03.873Z,2.63
2023-04-16T00:28:31.692Z,3.42
2023-04-16T00:30:59.703Z,3.03
2023-04-16T00:33:27.630Z,2.67
2023-04-16T00:35:55.470Z,3.13
2023-04-16T00:38:23.546Z,2.73
2023-04-16T00:40:51.526Z,2.78
2023-04-16T00:43:25.442Z,2.50
2023-04-16T00:45:56.125Z,3.00
2023-04-16T00:48:24.756Z,2.13
2023-04-16T00:50:52.673Z,2.70
2023-04-16T00:53:20.703Z,2.85
2023-04-16T00:55:48.966Z,2.25
2023-04-16T00:58:20.049Z,2.38
2023-04-16T01:00:49.419Z,2.03
2023-04-16T01:03:17.524Z,2.33
2023-04-16T01:05:49.272Z,2.00
2023-04-16T01:08:18.684Z,2.00
2023-04-16T01:10:46.598Z,2.42
2023-04-16T01:13:14.824Z,1.70
2023-04-16T01:15:42.698Z,1.53
2023-04-16T01:18:16.885Z,1.65
2023-04-16T01:20:46.584Z,1.50
2023-04-16T01:23:15.202Z,2.03
2023-04-16T01:25:43.271Z,1.50
2023-04-16T01:28:11.134Z,1.67
2023-04-16T01:30:39.118Z,2.30
2023-04-16T01:33:20.971Z,1.92
2023-04-16T01:35:50.344Z,1.70
2023-04-16T01:38:18.164Z,2.22
2023-04-16T01:40:46.111Z,2.20
2023-04-16T01:43:14.027Z,2.35
2023-04-16T01:45:42.071Z,2.22
2023-04-16T01:48:10.576Z,2.60
2023-04-16T01:50:41.061Z,2.15
2023-04-16T01:53:10.421Z,2.50
2023-04-16T01:55:38.652Z,2.38
2023-04-16T01:58:10.547Z,2.50
2023-04-16T02:00:38.916Z,2.75
2023-04-16T02:03:07.097Z,3.13
2023-04-16T02:05:35.155Z,2.90
2023-04-16T02:08:03.082Z,3.33
2023-04-16T02:10:32.800Z,3.50
2023-04-16T02:13:01.095Z,3.75
2023-04-16T02:15:29.066Z,3.60
2023-04-16T02:18:02.369Z,4.00
2023-04-16T02:20:31.303Z,3.85
2023-04-16T02:23:01.442Z,4.38
2023-04-16T02:25:29.683Z,4.10
2023-04-16T02:28:00.274Z,5.00
2023-04-16T02:30:39.573Z,4.83
2023-04-16T02:33:08.998Z,5.10
2023-04-16T02:35:38.979Z,5.00
2023-04-16T02:38:08.678Z,4.70
2023-04-16T02:40:37.812Z,5.20
2023-04-16T02:43:07.101Z,4.87
2023-04-16T02:45:35.338Z,6.20
2023-04-16T02:48:03.263Z,5.32
2023-04-16T02:50:31.328Z,6.05
2023-04-16T02:52:59.225Z,6.50
2023-04-16T02:55:28.156Z,6.50
2023-04-16T02:57:56.050Z,6.20
2023-04-16T03:00:25.708Z,6.10
2023-04-16T03:02:53.931Z,7.25
2023-04-16T03:05:22.159Z,5.82
2023-04-16T03:07:50.720Z,6.77
2023-04-16T03:10:18.689Z,6.60
2023-04-16T03:12:46.566Z,7.80
2023-04-16T03:15:14.600Z,6.80
2023-04-16T03:17:44.313Z,7.53
2023-04-16T03:20:12.927Z,8.60
2023-04-16T03:22:40.834Z,8.00
2023-04-16T03:25:09.455Z,7.32
2023-04-16T03:27:37.740Z,7.40
2023-04-16T03:30:07.870Z,7.70
2023-04-16T03:32:37.514Z,7.13
2023-04-16T03:35:11.039Z,6.88
2023-04-16T03:37:39.435Z,7.03
2023-04-16T03:40:08.883Z,7.35
2023-04-16T03:42:37.481Z,7.78
2023-04-16T03:45:09.410Z,7.43
2023-04-16T03:47:39.188Z,6.88
2023-04-16T03:50:14.055Z,7.85
2023-04-16T03:52:42.636Z,6.60
2023-04-16T03:55:11.247Z,6.85
2023-04-16T03:57:39.387Z,6.73
2023-04-16T04:00:13.076Z,6.45
2023-04-16T04:03:05.549Z,6.15
2023-04-16T04:05:38.990Z,6.55
2023-04-16T04:08:09.563Z,6.45
2023-04-16T04:10:38.364Z,5.67
2023-04-16T04:13:07.940Z,6.30
2023-04-16T04:15:36.853Z,6.78
2023-04-16T04:18:05.018Z,5.82
2023-04-16T04:20:33.009Z,6.00
2023-04-16T04:23:04.140Z,6.57
2023-04-16T04:25:32.190Z,5.82
2023-04-16T04:28:00.774Z,6.03
2023-04-16T04:30:29.974Z,6.53
2023-04-16T04:32:58.528Z,6.78
2023-04-16T04:35:26.630Z,6.07
2023-04-16T04:37:55.789Z,6.70
2023-04-16T04:40:25.597Z,5.85
2023-04-16T04:42:54.542Z,5.68
2023-04-16T04:45:25.693Z,5.90
2023-04-16T04:47:55.348Z,5.50
2023-04-16T04:50:23.890Z,5.68
2023-04-16T04:52:52.263Z,6.47
2023-04-16T04:55:20.697Z,6.72
2023-04-16T04:57:50.265Z,7.22
2023-04-16T05:00:18.960Z,6.67
2023-04-16T05:02:54.552Z,7.03
2023-04-16T05:05:23.016Z,7.78
2023-04-16T05:07:53.748Z,6.95
2023-04-16T05:10:21.667Z,6.50
2023-04-16T05:12:53.535Z,6.20
2023-04-16T05:15:21.608Z,7.43
2023-04-16T05:17:49.811Z,6.53
2023-04-16T05:20:18.013Z,6.00
2023-04-16T05:22:46.168Z,6.15
2023-04-16T05:25:14.390Z,5.60
2023-04-16T05:27:42.536Z,5.93
2023-04-16T05:30:12.910Z,6.00
2023-04-16T05:32:42.811Z,6.25
2023-04-16T05:35:11.731Z,6.80
2023-04-16T05:37:40.005Z,7.77
2023-04-16T05:40:12.409Z,7.40
2023-04-16T05:42:40.683Z,7.55
2023-04-16T05:45:10.050Z,7.65
2023-04-16T05:47:40.291Z,7.32
2023-04-16T05:50:09.129Z,5.87
2023-04-16T05:52:37.272Z,7.43
2023-04-16T05:55:05.910Z,6.50
2023-04-16T05:57:34.803Z,7.00
2023-04-16T06:00:03.207Z,6.85
2023-04-16T06:02:41.621Z,6.53
2023-04-16T06:05:12.604Z,5.75
2023-04-16T06:07:45.135Z,6.78
2023-04-16T06:10:13.106Z,5.47
2023-04-16T06:12:41.264Z,6.13
2023-04-16T06:15:10.913Z,7.17
2023-04-16T06:17:38.937Z,6.18
2023-04-16T06:20:09.655Z,6.43
2023-04-16T06:22:37.826Z,6.53
2023-04-16T06:25:06.566Z,5.97
2023-04-16T06:27:34.473Z,6.17
2023-04-16T06:30:02.649Z,6.05
2023-04-16T06:32:33.179Z,5.60
2023-04-16T06:35:01.333Z,5.70
2023-04-16T06:37:31.288Z,5.80
2023-04-16T06:39:59.361Z,5.40
2023-04-16T06:42:27.297Z,5.25
2023-04-16T06:44:55.608Z,6.15
2023-04-16T06:47:23.578Z,6.47
2023-04-16T06:49:51.658Z,5.90
2023-04-16T06:52:19.715Z,5.23
2023-04-16T06:54:49.344Z,6.15
2023-04-16T06:57:17.174Z,6.90
2023-04-16T06:59:45.019Z,6.47
2023-04-16T07:02:13.332Z,6.28
2023-04-16T07:04:42.501Z,6.20
2023-04-16T07:07:11.722Z,6.72
2023-04-16T07:09:39.958Z,5.57
2023-04-16T07:12:09.409Z,6.93
2023-04-16T07:14:37.596Z,6.53
2023-04-16T07:17:05.614Z,6.53
2023-04-16T07:19:33.563Z,6.35
2023-04-16T07:22:01.526Z,6.15
2023-04-16T07:24:29.463Z,6.78
2023-04-16T07:27:08.432Z,6.15
2023-04-16T07:32:48.193Z,6.28
2023-04-16T07:35:35.519Z,5.63
2023-04-16T07:38:04.887Z,5.70
2023-04-16T07:40:32.961Z,6.07
2023-04-16T07:43:00.845Z,6.00
2023-04-16T07:45:30.218Z,6.18
2023-04-16T07:47:58.243Z,6.15
2023-04-16T07:50:26.474Z,6.70
2023-04-16T07:52:55.861Z,6.88
2023-04-16T07:55:23.975Z,5.80
2023-04-16T07:57:52.387Z,5.88
2023-04-16T08:00:22.586Z,5.00
2023-04-16T08:02:54.999Z,5.93
2023-04-16T08:05:23.094Z,5.47
2023-04-16T08:07:50.904Z,5.77
2023-04-16T08:10:18.886Z,5.20
2023-04-16T08:12:46.785Z,6.10
2023-04-16T08:15:15.814Z,6.22
2023-04-16T08:17:43.731Z,6.60
2023-04-16T08:20:16.902Z,6.90
2023-04-16T08:22:46.743Z,6.43
2023-04-16T08:25:15.497Z,6.28
2023-04-16T08:27:43.607Z,6.05
2023-04-16T08:30:12.489Z,6.20
2023-04-16T08:32:40.505Z,6.30
2023-04-16T08:35:09.014Z,5.50
2023-04-16T08:37:38.773Z,6.70
2023-04-16T08:40:07.874Z,5.75
2023-04-16T08:42:46.076Z,6.00
2023-04-16T08:45:16.559Z,6.00
2023-04-16T08:47:48.049Z,5.88
2023-04-16T08:50:17.658Z,5.68
2023-04-16T08:52:52.739Z,5.80
2023-04-16T08:55:24.605Z,6.07
2023-04-16T08:57:55.772Z,6.40
2023-04-16T09:00:24.996Z,5.50
2023-04-16T09:02:54.250Z,6.93
2023-04-16T09:05:25.843Z,5.75
2023-04-16T09:07:55.424Z,5.47
2023-04-16T09:10:23.547Z,5.33
2023-04-16T09:12:52.054Z,5.63
2023-04-16T09:15:22.160Z,5.30
2023-04-16T09:17:50.191Z,5.50
2023-04-16T09:20:18.665Z,5.20
2023-04-16T09:22:46.714Z,5.37
2023-04-16T09:25:16.570Z,5.35
2023-04-16T09:27:45.104Z,5.00
2023-04-16T09:30:24.196Z,5.90
2023-04-16T09:32:53.308Z,6.10
2023-04-16T09:35:21.943Z,5.63
2023-04-16T09:37:56.987Z,6.10
2023-04-16T09:40:32.149Z,6.53
2023-04-16T09:43:01.417Z,6.53
2023-04-16T09:45:35.161Z,7.07
2023-04-16T09:48:08.792Z,7.00
2023-04-16T09:50:37.551Z,7.00
2023-04-16T09:53:05.631Z,7.55
2023-04-16T09:55:37.915Z,7.28
2023-04-16T09:58:08.259Z,7.07
2023-04-16T10:00:36.102Z,7.00
2023-04-16T10:03:11.767Z,6.35
2023-04-16T10:05:40.699Z,7.53
2023-04-16T10:08:15.407Z,7.68
2023-04-16T10:10:48.070Z,7.93
2023-04-16T10:13:17.718Z,6.90
2023-04-16T10:15:46.194Z,7.07
2023-04-16T10:18:15.615Z,7.32
2023-04-16T10:20:44.968Z,8.05
2023-04-16T10:23:14.471Z,6.78
2023-04-16T10:25:45.660Z,7.30
2023-04-16T10:28:15.583Z,7.20
2023-04-16T10:30:52.462Z,7.78
2023-04-16T10:33:23.160Z,6.93
2023-04-16T10:36:01.197Z,7.20
2023-04-16T10:38:37.484Z,6.63
2023-04-16T10:41:08.616Z,6.55
2023-04-16T10:43:41.924Z,7.65
2023-04-16T10:46:20.648Z,6.43
2023-04-16T10:48:50.583Z,7.00
2023-04-16T10:51:27.883Z,6.83
2023-04-16T10:53:57.466Z,6.63
2023-04-16T10:56:31.101Z,6.82
2023-04-16T10:59:05.374Z,6.28
2023-04-16T11:01:35.332Z,6.53
2023-04-16T11:04:30.836Z,6.07
2023-04-16T11:07:03.997Z,6.18
2023-04-16T11:09:51.920Z,6.03
2023-04-16T11:12:22.458Z,6.35
2023-04-16T11:14:51.543Z,5.90
2023-04-16T11:17:20.368Z,6.43
2023-04-16T11:19:49.254Z,6.07
2023-04-16T11:22:21.077Z,6.68
2023-04-16T11:24:49.174Z,6.90
2023-04-16T11:27:17.221Z,6.47
2023-04-16T11:29:47.599Z,6.27
2023-04-16T11:32:23.840Z,6.43
2023-04-16T11:34:53.285Z,6.68
2023-04-16T11:37:24.540Z,7.05
2023-04-16T11:39:53.570Z,6.68
2023-04-16T11:42:23.725Z,7.47
2023-04-16T11:44:57.360Z,7.30
2023-04-16T11:47:30.943Z,6.72
2023-04-16T11:50:01.746Z,7.03
2023-04-16T11:52:32.619Z,7.78
2023-04-16T11:55:02.567Z,6.23
2023-04-16T11:57:32.077Z,7.30
2023-04-16T12:00:09.244Z,7.47
2023-04-16T12:02:42.950Z,7.03
2023-04-16T12:05:30.833Z,7.70
2023-04-16T12:07:59.700Z,7.03
2023-04-16T12:10:28.487Z,6.57
2023-04-16T12:12:56.958Z,6.78
2023-04-16T12:15:45.012Z,6.60
2023-04-16T12:18:13.609Z,7.63
2023-04-16T12:20:42.761Z,7.40
2023-04-16T12:23:11.206Z,7.43
2023-04-16T12:25:40.701Z,7.63
2023-04-16T12:28:09.628Z,7.35
2023-04-16T12:30:51.346Z,7.47
2023-04-16T12:33:21.363Z,6.80
2023-04-16T12:35:49.757Z,7.05
2023-04-16T12:38:18.065Z,7.57
2023-04-16T12:40:46.836Z,7.25
2023-04-16T12:43:15.128Z,7.07
2023-04-16T12:45:45.112Z,7.57
2023-04-16T12:48:15.032Z,7.45
2023-04-16T12:50:44.139Z,6.88
2023-04-16T12:53:12.809Z,7.95
2023-04-16T12:55:45.381Z,6.78
2023-04-16T12:58:13.474Z,7.30
2023-04-16T13:00:41.432Z,7.35
2023-04-16T13:03:11.202Z,8.15
2023-04-16T13:05:39.611Z,7.35
2023-04-16T13:08:10.432Z,6.57
2023-04-16T13:10:39.111Z,7.27
2023-04-16T13:13:08.409Z,7.35
2023-04-16T13:15:36.403Z,8.00
2023-04-16T13:18:04.365Z,7.60
2023-04-16T13:20:34.580Z,7.70
2023-04-16T13:23:04.859Z,6.83
2023-04-16T13:25:32.837Z,7.35
2023-04-16T13:28:00.724Z,7.63
2023-04-16T13:30:29.327Z,7.57
2023-04-16T13:32:57.418Z,7.88
2023-04-16T13:35:25.436Z,8.10
2023-04-16T13:37:55.033Z,7.50
2023-04-16T13:40:23.052Z,8.20
2023-04-16T13:42:51.152Z,8.30
2023-04-16T13:45:20.321Z,7.70
2023-04-16T13:47:48.380Z,8.37
2023-04-16T13:50:16.958Z,8.43
2023-04-16T13:52:44.747Z,9.25
2023-04-16T13:55:17.497Z,8.95
2023-04-16T13:57:45.759Z,8.73
2023-04-16T14:00:17.986Z,8.77
2023-04-16T14:02:48.746Z,9.18
2023-04-16T14:05:17.096Z,9.15
2023-04-16T14:07:45.049Z,8.82
2023-04-16T14:10:14.623Z,8.82
2023-04-16T14:12:44.413Z,9.03
2023-04-16T14:15:14.784Z,8.10
2023-04-16T14:17:44.111Z,8.18
2023-04-16T14:20:15.301Z,8.70
2023-04-16T14:22:44.212Z,8.63
2023-04-16T14:25:12.150Z,8.50
2023-04-16T14:27:42.212Z,8.88
2023-04-16T14:30:11.594Z,8.00
2023-04-16T14:32:40.596Z,8.02
2023-04-16T14:35:10.632Z,8.40
2023-04-16T14:37:39.082Z,7.63
2023-04-16T14:40:09.011Z,8.40
2023-04-16T14:42:37.808Z,8.07
2023-04-16T14:45:09.355Z,8.52
2023-04-16T14:47:47.730Z,8.45
2023-04-16T14:50:16.110Z,8.17
2023-04-16T14:52:44.102Z,8.35
2023-04-16T14:55:12.482Z,9.13
2023-04-16T14:57:41.522Z,7.93
2023-04-16T15:00:13.492Z,9.77
2023-04-16T15:02:42.415Z,8.27
2023-04-16T15:05:11.769Z,7.97
2023-04-16T15:07:39.803Z,7.80
2023-04-16T15:10:12.651Z,8.20
2023-04-16T15:12:40.966Z,7.97
2023-04-16T15:15:13.628Z,8.27
2023-04-16T15:17:42.293Z,8.20
2023-04-16T15:20:12.072Z,8.48
2023-04-16T15:22:42.408Z,7.43
2023-04-16T15:25:11.770Z,7.18
2023-04-16T15:27:40.068Z,7.73
2023-04-16T15:30:10.993Z,7.95
2023-04-16T15:32:40.898Z,7.82
2023-04-16T15:35:11.388Z,6.75
2023-04-16T15:37:39.989Z,7.82
2023-04-16T15:40:09.327Z,7.73
2023-04-16T15:42:37.250Z,8.60
2023-04-16T15:45:05.748Z,7.38
2023-04-16T15:47:33.790Z,7.47
2023-04-16T15:50:03.793Z,7.78
2023-04-16T15:52:31.920Z,7.63
2023-04-16T15:55:04.461Z,7.78
2023-04-16T15:57:32.414Z,8.10
2023-04-16T16:00:06.626Z,8.02
2023-04-16T16:02:36.265Z,8.70
2023-04-16T16:05:07.707Z,7.90
2023-04-16T16:07:36.072Z,8.70
2023-04-16T16:10:06.928Z,9.30
2023-04-16T16:12:38.496Z,7.97
2023-04-16T16:15:08.387Z,9.55
2023-04-16T16:17:39.497Z,8.83
2023-04-16T16:20:10.780Z,9.40
2023-04-16T16:22:40.107Z,9.98
2023-04-16T16:25:10.630Z,8.60
2023-04-16T16:27:41.043Z,9.95
2023-04-16T16:30:10.781Z,10.30
2023-04-16T16:32:41.074Z,10.82
2023-04-16T16:35:12.492Z,10.25
2023-04-16T16:37:40.621Z,10.50
2023-04-16T16:40:11.780Z,10.18
2023-04-16T16:42:40.658Z,10.03
2023-04-16T16:45:10.788Z,10.60
2023-04-16T16:47:39.506Z,10.38
2023-04-16T16:50:13.994Z,9.48
2023-04-16T16:52:47.195Z,9.90
2023-04-16T16:57:44.335Z,11.50
2023-04-16T17:00:14.250Z,10.85
2023-04-16T17:02:42.288Z,10.38
2023-04-16T17:05:10.995Z,11.13
2023-04-16T17:07:39.979Z,11.07
2023-04-16T17:10:13.906Z,11.13
2023-04-16T17:12:42.180Z,10.10
2023-04-16T17:15:11.097Z,10.75
2023-04-16T17:17:39.630Z,10.52
2023-04-16T17:20:12.577Z,10.00
2023-04-16T17:22:42.765Z,11.27
2023-04-16T17:25:14.214Z,11.40
2023-04-16T17:27:42.752Z,10.63
2023-04-16T17:30:11.582Z,11.07
2023-04-16T17:32:39.957Z,11.20
2023-04-16T17:35:13.958Z,12.35
2023-04-16T17:37:42.841Z,11.65
2023-04-16T17:40:15.720Z,10.77
2023-04-16T17:42:43.931Z,11.13
2023-04-16T17:45:14.514Z,11.37
2023-04-16T17:47:44.594Z,10.82
2023-04-16T17:50:14.976Z,11.80
2023-04-16T17:52:43.339Z,11.13
2023-04-16T17:55:13.292Z,12.38
2023-04-16T17:57:41.608Z,11.43
2023-04-16T18:00:11.257Z,11.43
2023-04-16T18:02:42.342Z,12.43
2023-04-16T18:05:11.572Z,12.00
2023-04-16T18:07:39.538Z,11.63
2023-04-16T18:10:10.335Z,10.73
2023-04-16T18:12:41.223Z,10.68
2023-04-16T18:15:10.543Z,10.93
2023-04-16T18:17:38.895Z,10.65
2023-04-16T18:20:09.267Z,11.32
2023-04-16T18:22:37.269Z,10.63
2023-04-16T18:25:06.790Z,10.65
2023-04-16T18:27:35.143Z,10.30
2023-04-16T18:30:05.292Z,9.60
2023-04-16T18:32:35.403Z,9.45
2023-04-16T18:35:05.455Z,10.00
2023-04-16T18:37:33.433Z,10.65
2023-04-16T18:40:01.830Z,10.48
2023-04-16T18:42:30.059Z,10.27
2023-04-16T18:44:59.466Z,10.32
2023-04-16T18:47:32.800Z,10.30
2023-04-16T18:50:02.146Z,9.30
2023-04-16T18:52:30.031Z,10.40
2023-04-16T18:55:02.847Z,10.20
2023-04-16T18:57:31.778Z,9.93
2023-04-16T19:00:01.439Z,9.90
2023-04-16T19:02:32.120Z,10.57
2023-04-16T19:05:02.204Z,10.73
2023-04-16T19:07:30.300Z,11.27
2023-04-16T19:09:58.512Z,10.60
2023-04-16T19:12:27.257Z,10.83
2023-04-16T19:14:58.750Z,10.70
2023-04-16T19:17:28.875Z,10.10
2023-04-16T19:19:58.615Z,10.63
2023-04-16T19:22:27.022Z,10.95
2023-04-16T19:24:55.753Z,10.20
2023-04-16T19:27:26.080Z,9.38
2023-04-16T19:29:56.152Z,10.25
2023-04-16T19:32:25.438Z,10.73
2023-04-16T19:34:54.174Z,10.05
2023-04-16T19:37:24.392Z,10.10
2023-04-16T19:39:52.557Z,10.50
2023-04-16T19:42:22.686Z,10.23
2023-04-16T19:44:52.134Z,10.98
2023-04-16T19:47:22.429Z,10.73
2023-04-16T19:49:51.152Z,10.57
2023-04-16T19:52:22.938Z,11.55
2023-04-16T19:54:58.998Z,11.38
2023-04-16T19:57:27.194Z,11.15
2023-04-16T19:59:55.411Z,11.80
2023-04-16T20:02:23.577Z,11.33
2023-04-16T20:04:54.562Z,12.10
2023-04-16T20:07:24.202Z,11.88
2023-04-16T20:09:56.200Z,11.65
2023-04-16T20:12:26.643Z,12.60
2023-04-16T20:14:57.267Z,11.50
2023-04-16T20:17:26.065Z,12.65
2023-04-16T20:19:57.638Z,12.77
2023-04-16T20:22:25.990Z,13.25
2023-04-16T20:24:56.376Z,13.40
2023-04-16T20:27:24.419Z,12.60
2023-04-16T20:29:52.855Z,14.70
2023-04-16T20:32:21.347Z,13.85
2023-04-16T20:34:49.843Z,15.15
2023-04-16T20:37:18.188Z,13.40
2023-04-16T20:39:50.229Z,12.43
2023-04-16T20:42:22.161Z,13.40
2023-04-16T20:44:55.882Z,13.35
2023-04-16T20:47:27.928Z,12.80
2023-04-16T20:49:56.149Z,13.25
2023-04-16T20:52:27.730Z,13.27
2023-04-16T20:54:56.785Z,13.32
2023-04-16T20:57:28.429Z,14.77
2023-04-16T20:59:56.611Z,14.20
2023-04-16T21:02:24.836Z,14.25
2023-04-16T21:04:53.349Z,15.27
2023-04-16T21:07:21.452Z,13.98
2023-04-16T21:09:50.186Z,14.57
2023-04-16T21:12:18.783Z,13.05
2023-04-16T21:14:48.174Z,12.85
2023-04-16T21:17:16.337Z,13.57
2023-04-16T21:19:44.308Z,12.40
2023-04-16T21:22:12.443Z,12.38
2023-04-16T21:24:40.753Z,12.73
2023-04-16T21:27:09.055Z,12.13
2023-04-16T21:29:36.906Z,12.63
2023-04-16T21:32:08.732Z,13.15
2023-04-16T21:34:36.856Z,12.98
2023-04-16T21:37:04.892Z,12.98
2023-04-16T21:39:33.629Z,13.75
2023-04-16T21:42:01.833Z,13.20
2023-04-16T21:44:30.652Z,13.00
2023-04-16T21:46:58.757Z,13.40
2023-04-16T21:49:28.495Z,13.18
2023-04-16T21:51:59.201Z,13.13
2023-04-16T21:54:27.419Z,13.13
2023-04-16T21:56:55.728Z,13.52
2023-04-16T21:59:24.027Z,13.45
2023-04-16T22:01:52.116Z,14.55
2023-04-16T22:04:26.047Z,13.43
2023-04-16T22:07:03.210Z,11.53
2023-04-16T22:09:31.711Z,11.48
2023-04-16T22:12:00.392Z,11.02
2023-04-16T22:14:29.453Z,11.77
2023-04-16T22:16:58.740Z,11.02
2023-04-16T22:19:27.443Z,11.93
2023-04-16T22:21:56.409Z,10.88
2023-04-16T22:24:25.884Z,11.57
2023-04-16T22:26:53.856Z,11.98
2023-04-16T22:29:22.310Z,11.40
2023-04-16T22:31:50.667Z,11.93
2023-04-16T22:34:18.671Z,12.65
2023-04-16T22:36:47.789Z,12.50
2023-04-16T22:39:15.827Z,12.27
2023-04-16T22:41:45.156Z,13.93
2023-04-16T22:44:13.179Z,14.13
2023-04-16T22:46:40.977Z,13.57
2023-04-16T22:49:09.000Z,13.43
2023-04-16T22:51:38.116Z,13.07
2023-04-16T22:54:07.169Z,14.55
2023-04-16T22:56:35.163Z,13.67
2023-04-16T22:59:04.395Z,14.30
2023-04-16T23:01:32.412Z,13.73
2023-04-16T23:04:00.644Z,13.68
2023-04-16T23:06:28.697Z,13.73
2023-04-16T23:08:56.621Z,11.50
2023-04-16T23:11:25.057Z,12.40
2023-04-16T23:13:52.961Z,11.95
2023-04-16T23:16:22.464Z,12.07
2023-04-16T23:18:50.790Z,11.57
2023-04-16T23:21:18.744Z,12.63
2023-04-16T23:23:46.522Z,10.38
2023-04-16T23:26:14.573Z,11.90
2023-04-16T23:28:42.428Z,11.32
2023-04-16T23:31:10.435Z,11.43
2023-04-16T23:33:40.093Z,11.50
2023-04-16T23:36:08.966Z,12.40
2023-04-16T23:38:36.853Z,12.55
2023-04-16T23:41:04.929Z,13.20
2023-04-16T23:43:32.958Z,13.43
2023-04-16T23:46:01.994Z,13.57
2023-04-16T23:48:30.011Z,13.38
2023-04-16T23:50:59.275Z,14.43
2023-04-16T23:53:27.073Z,14.63
2023-04-16T23:55:55.144Z,14.35
2023-04-16T23:58:23.212Z,13.80
